North Cascades National Park, WA

10:42 AM PST on December 27, 2014 (GMT -0800)
Newhalem Helistop | Change Station
CLOSE
Current Station
Personal Weather Station
Location: Newhalem, WA
Elevation: 504 ft
Nearby Weather Stations
Active Advisory: Winter Storm Warning

Elev 504 ft 48.67 °N, 121.25 °W | Updated 43 seconds ago

Ice Pellets
Ice Pellets
32.7 °F
Feels Like 33 °F
N
0.0
Wind Variable Wind from NW
Gusts 1.0 mph

Today
High -- | Low -- °F
--% Chance of Precip.
Yesterday
High -- | Low -- °F
Precip. -- in
7:57 AM 4:16 PM
Waxing Crescent, 39% visible
Pressure 30.11 in
Visibility 10.0 miles
Clouds Overcast 800 ft
Windchill 33 °F
Dew Point 33 °F
Humidity 100%
Rainfall 0.23 in
Snow Depth Not available.
UV 0.0 out of 12
Pollen .50 out of 12
Air Quality Not available.
Flu Activity Not available.
METAR KAWO 271835Z AUTO 01006KT 10SM OVC008 04/03 A3011 RMK AO1

More Conditions Fewer Conditions

Pressure 30.11 in
Visibility 10.0 miles
Clouds Overcast 800 ft
Windchill 33 °F
Dew Point 33 °F
Humidity 100%
Rainfall 0.23 in
Snow Depth Not available.
UV 0.0 out of 12
Pollen .50 out of 12
Air Quality Not available.
Flu Activity Not available.
METAR KAWO 271835Z AUTO 01006KT 10SM OVC008 04/03 A3011 RMK AO1

More Conditions Fewer Conditions

10-Day Weather Forecast

Almanac

Astronomy

Dec. 27, 2014 Rise Set
Actual Time
Civil Twilight
Nautical Twilight
Astronomical Twilight
Moon
Length of Visible Light
Length of Day
Tomorrow will be .
, % of the Moon is Illuminated

Today's Extremes

State Highs State Lows

Community

WunderPhotos

Upload Photos

1,780,988 photos uploaded!

WunderBlogs® & News

Nearby

Air Quality

  Air Quality AQ Index Pollutant
Not available.

Snow Depth

Station Depth Elevation

Earthquake Activity

City Distance Mag. Time & Date
Minimum magnitude displayed is 2.5.

Coastal Water Temperatures

Place Temperature

Nearby Weather Stations